createdAt,value
2018-07-16T00:04:21.918Z,0.80
2018-07-16T00:09:25.333Z,0.80
2018-07-16T00:14:28.851Z,0.70
2018-07-16T00:19:32.407Z,0.70
2018-07-16T00:24:35.698Z,0.70
2018-07-16T00:29:39.098Z,0.77
2018-07-16T00:34:42.351Z,0.83
2018-07-16T00:39:45.723Z,0.70
2018-07-16T00:44:48.978Z,0.87
2018-07-16T00:49:52.250Z,0.90
2018-07-16T00:54:55.498Z,0.80
2018-07-16T00:59:58.814Z,0.80
2018-07-16T01:05:02.083Z,0.77
2018-07-16T01:10:05.402Z,0.80
2018-07-16T01:15:08.658Z,1.10
2018-07-16T01:20:11.930Z,0.90
2018-07-16T01:25:15.178Z,1.00
2018-07-16T01:30:18.521Z,0.90
2018-07-16T01:35:21.738Z,1.00
2018-07-16T01:40:25.027Z,0.80
2018-07-16T01:45:28.260Z,0.93
2018-07-16T01:50:31.607Z,1.23
2018-07-16T01:55:34.862Z,1.10
2018-07-16T02:00:49.430Z,1.00
2018-07-16T02:05:52.887Z,0.83
2018-07-16T02:10:56.546Z,0.97
2018-07-16T02:15:59.787Z,0.97
2018-07-16T02:21:03.066Z,1.00
2018-07-16T02:26:06.426Z,1.07
2018-07-16T02:31:09.739Z,1.10
2018-07-16T02:36:12.967Z,1.10
2018-07-16T02:41:16.224Z,1.00
2018-07-16T02:46:19.815Z,0.90
2018-07-16T02:51:23.046Z,0.90
2018-07-16T02:56:26.415Z,1.10
2018-07-16T03:01:29.586Z,1.10
2018-07-16T03:06:32.920Z,0.80
2018-07-16T03:11:36.144Z,0.90
2018-07-16T03:16:39.426Z,1.17
2018-07-16T03:21:42.667Z,0.97
2018-07-16T03:26:46.007Z,0.90
2018-07-16T03:31:49.383Z,1.00
2018-07-16T03:36:52.650Z,0.90
2018-07-16T03:41:55.962Z,0.90
2018-07-16T03:46:59.227Z,1.00
2018-07-16T03:52:02.499Z,1.10
2018-07-16T03:57:05.786Z,1.00
2018-07-16T04:02:09.114Z,0.97
2018-07-16T04:07:12.518Z,1.00
2018-07-16T04:12:15.810Z,1.00
2018-07-16T04:17:19.062Z,0.97
2018-07-16T04:22:22.294Z,1.03
2018-07-16T04:27:25.527Z,0.97
2018-07-16T04:32:28.882Z,1.20
2018-07-16T04:37:32.305Z,0.80
2018-07-16T04:42:35.534Z,1.00
2018-07-16T04:47:38.814Z,1.00
2018-07-16T04:52:42.063Z,1.10
2018-07-16T04:57:45.477Z,1.70
2018-07-16T05:02:48.802Z,1.30
2018-07-16T05:07:52.152Z,1.10
2018-07-16T05:12:55.405Z,1.23
2018-07-16T05:17:58.692Z,1.10
2018-07-16T05:23:01.910Z,1.10
2018-07-16T05:28:05.231Z,1.30
2018-07-16T05:33:08.531Z,1.17
2018-07-16T05:38:11.923Z,1.23
2018-07-16T05:43:15.102Z,1.10
2018-07-16T05:48:18.374Z,1.10
2018-07-16T05:53:21.643Z,1.00
2018-07-16T05:58:24.931Z,1.10
2018-07-16T06:03:28.276Z,1.23
2018-07-16T06:08:31.551Z,1.07
2018-07-16T06:13:34.895Z,1.10
2018-07-16T06:18:38.299Z,1.00
2018-07-16T06:23:41.662Z,0.93
2018-07-16T06:28:44.903Z,1.07
2018-07-16T06:33:48.246Z,1.00
2018-07-16T06:38:51.704Z,1.10
2018-07-16T06:43:54.974Z,1.00
2018-07-16T06:48:58.218Z,0.87
2018-07-16T06:54:01.786Z,0.90
2018-07-16T06:59:05.159Z,0.90
2018-07-16T07:04:09.219Z,0.77
2018-07-16T07:09:12.545Z,0.80
2018-07-16T07:14:15.783Z,0.90
2018-07-16T07:19:19.143Z,0.90
2018-07-16T07:24:22.392Z,1.00
2018-07-16T07:29:25.722Z,0.90
2018-07-16T07:34:29.012Z,1.27
2018-07-16T07:39:32.318Z,1.33
2018-07-16T07:44:35.654Z,1.37
2018-07-16T07:49:38.922Z,1.13
2018-07-16T07:54:42.303Z,1.10
2018-07-16T07:59:45.495Z,1.20
2018-07-16T08:04:48.815Z,1.00
2018-07-16T08:09:52.084Z,1.00
2018-07-16T08:14:55.315Z,0.93
2018-07-16T08:19:58.713Z,0.90
2018-07-16T08:25:02.075Z,0.97
2018-07-16T08:30:05.419Z,0.93
2018-07-16T08:35:08.835Z,1.07
2018-07-16T08:40:12.083Z,1.00
2018-07-16T08:45:15.326Z,1.17
2018-07-16T08:50:18.576Z,1.20
2018-07-16T08:55:21.831Z,0.80
2018-07-16T09:00:25.108Z,1.00
2018-07-16T09:05:28.375Z,1.00
2018-07-16T09:10:31.647Z,0.97
2018-07-16T09:15:34.896Z,0.80
2018-07-16T09:20:38.168Z,0.80
2018-07-16T09:25:42.280Z,0.80
2018-07-16T09:30:45.527Z,1.00
2018-07-16T09:35:48.915Z,1.10
2018-07-16T09:40:52.173Z,1.10
2018-07-16T09:45:55.424Z,0.90
2018-07-16T09:50:58.691Z,1.10
2018-07-16T09:56:02.003Z,0.90
2018-07-16T10:01:10.616Z,1.30
2018-07-16T10:06:13.882Z,1.30
2018-07-16T10:11:17.171Z,1.07
2018-07-16T10:16:20.515Z,1.17
2018-07-16T10:21:24.279Z,1.13
2018-07-16T10:26:27.517Z,0.97
2018-07-16T10:31:30.763Z,1.00
2018-07-16T10:36:34.024Z,1.10
2018-07-16T10:41:37.614Z,1.10
2018-07-16T10:46:40.855Z,1.00
2018-07-16T10:51:44.131Z,1.00
2018-07-16T10:56:47.362Z,1.10
2018-07-16T11:01:50.636Z,0.90
2018-07-16T11:06:53.906Z,1.30
2018-07-16T11:11:57.167Z,1.10
2018-07-16T11:17:00.404Z,1.10
2018-07-16T11:22:03.756Z,1.00
2018-07-16T11:27:07.019Z,1.20
2018-07-16T11:32:10.447Z,0.73
2018-07-16T11:37:13.708Z,0.80
2018-07-16T11:42:16.946Z,0.53
2018-07-16T11:47:20.223Z,1.00
2018-07-16T11:52:23.676Z,0.87
2018-07-16T11:57:26.924Z,0.80
2018-07-16T12:02:30.174Z,1.10
2018-07-16T12:07:33.436Z,1.00
2018-07-16T12:12:36.735Z,0.70
2018-07-16T12:17:39.939Z,0.70
2018-07-16T12:22:43.210Z,0.90
2018-07-16T12:27:46.543Z,0.87
2018-07-16T12:32:49.818Z,0.70
2018-07-16T12:37:52.795Z,0.77
2018-07-16T12:42:56.037Z,0.80
2018-07-16T12:47:59.299Z,0.87
2018-07-16T12:53:02.611Z,1.00
2018-07-16T12:58:05.908Z,0.80
2018-07-16T13:03:09.297Z,0.80
2018-07-16T13:08:12.592Z,1.07
2018-07-16T13:13:15.924Z,0.80
2018-07-16T13:18:19.252Z,0.73
2018-07-16T13:23:22.520Z,0.87
2018-07-16T13:28:25.758Z,0.87
2018-07-16T13:33:29.061Z,0.53
2018-07-16T13:38:32.451Z,0.63
2018-07-16T13:43:35.695Z,0.70
2018-07-16T13:48:38.943Z,0.67
2018-07-16T13:53:42.223Z,0.80
2018-07-16T13:58:45.536Z,0.97
2018-07-16T14:03:48.827Z,1.00
2018-07-16T14:08:52.090Z,1.50
2018-07-16T14:13:55.527Z,1.10
2018-07-16T14:18:58.776Z,1.33
2018-07-16T14:24:02.143Z,1.90
2018-07-16T14:29:05.390Z,2.20
2018-07-16T14:34:08.678Z,2.10
2018-07-16T14:39:12.011Z,1.60
2018-07-16T14:44:15.258Z,1.40
2018-07-16T14:49:18.550Z,1.23
2018-07-16T14:54:21.907Z,1.17
2018-07-16T14:59:25.158Z,1.00
2018-07-16T15:04:28.439Z,0.90
2018-07-16T15:09:31.755Z,0.80
2018-07-16T15:14:35.059Z,1.10
2018-07-16T15:19:38.463Z,1.30
2018-07-16T15:24:41.742Z,1.33
2018-07-16T15:29:46.085Z,1.00
2018-07-16T15:34:49.422Z,0.97
2018-07-16T15:39:52.913Z,0.83
2018-07-16T15:44:56.154Z,1.30
2018-07-16T15:49:59.584Z,1.00
2018-07-16T15:55:02.982Z,0.90
2018-07-16T16:00:06.330Z,0.83
2018-07-16T16:05:09.587Z,1.00
2018-07-16T16:10:12.906Z,0.90
2018-07-16T16:15:16.485Z,0.90
2018-07-16T16:20:19.782Z,0.90
2018-07-16T16:25:23.031Z,0.90
2018-07-16T16:30:26.519Z,0.70
2018-07-16T16:35:30.008Z,0.90
2018-07-16T16:40:33.295Z,1.00
2018-07-16T16:45:36.577Z,0.97
2018-07-16T16:50:39.843Z,0.70
2018-07-16T16:55:43.116Z,0.90
2018-07-16T17:00:46.465Z,1.20
2018-07-16T17:05:49.744Z,0.87
2018-07-16T17:10:53.111Z,0.73
2018-07-16T17:15:56.479Z,1.33
2018-07-16T17:20:59.832Z,1.00
2018-07-16T17:26:03.168Z,0.80
2018-07-16T17:31:06.606Z,0.80
2018-07-16T17:36:09.923Z,1.00
2018-07-16T17:41:13.206Z,0.80
2018-07-16T17:46:16.447Z,0.80
2018-07-16T17:51:19.707Z,0.80
2018-07-16T17:56:22.968Z,0.80
2018-07-16T18:01:26.257Z,0.70
2018-07-16T18:12:03.695Z,0.87
2018-07-16T18:17:07.046Z,0.73
2018-07-16T18:22:10.411Z,0.70
2018-07-16T18:27:13.662Z,0.70
2018-07-16T18:32:16.899Z,0.80
2018-07-16T18:37:20.168Z,0.63
2018-07-16T18:42:23.443Z,1.50
2018-07-16T18:47:26.738Z,1.40
2018-07-16T18:52:29.999Z,2.10
2018-07-16T18:57:33.354Z,1.40
2018-07-16T19:02:36.716Z,1.13
2018-07-16T19:07:40.012Z,0.97
2018-07-16T19:12:43.586Z,0.73
2018-07-16T19:17:46.979Z,0.73
2018-07-16T19:22:50.353Z,0.80
2018-07-16T19:27:54.554Z,0.90
2018-07-16T19:32:58.043Z,0.83
2018-07-16T19:38:01.471Z,1.00
2018-07-16T19:43:04.895Z,0.90
2018-07-16T19:48:08.264Z,0.93
2018-07-16T19:53:11.767Z,0.80
2018-07-16T19:58:15.471Z,0.80
2018-07-16T20:03:18.826Z,1.20
2018-07-16T20:08:22.286Z,1.00
2018-07-16T20:13:25.777Z,1.00
2018-07-16T20:18:31.892Z,0.90
2018-07-16T20:23:35.276Z,1.07
2018-07-16T20:28:38.761Z,1.30
2018-07-16T20:33:42.051Z,1.13
2018-07-16T20:38:45.340Z,1.20
2018-07-16T20:43:48.705Z,1.10
2018-07-16T20:48:52.129Z,1.10
2018-07-16T20:53:55.524Z,1.20
2018-07-16T20:58:58.788Z,1.13
2018-07-16T21:04:02.041Z,0.93
2018-07-16T21:09:07.195Z,1.27
2018-07-16T21:14:10.490Z,1.50
2018-07-16T21:19:13.774Z,1.23
2018-07-16T21:24:17.023Z,1.10
2018-07-16T21:29:20.364Z,1.30
2018-07-16T21:34:23.619Z,1.30
2018-07-16T21:39:26.959Z,1.30
2018-07-16T21:44:30.288Z,1.40
2018-07-16T21:49:33.623Z,1.40
2018-07-16T21:54:36.863Z,1.60
2018-07-16T21:59:40.133Z,1.83
2018-07-16T22:04:43.414Z,2.23
2018-07-16T22:09:46.699Z,2.10
2018-07-16T22:14:49.991Z,1.97
2018-07-16T22:19:53.283Z,2.10
2018-07-16T22:24:56.612Z,2.20
2018-07-16T22:29:59.821Z,2.20
2018-07-16T22:35:03.248Z,2.47
2018-07-16T22:40:07.157Z,2.70
2018-07-16T22:45:10.548Z,2.07
2018-07-16T22:50:13.786Z,2.40
2018-07-16T22:55:16.791Z,2.33
2018-07-16T23:00:20.092Z,2.87
2018-07-16T23:05:23.400Z,2.80
2018-07-16T23:10:26.708Z,2.90
2018-07-16T23:15:30.055Z,2.57
2018-07-16T23:20:33.309Z,2.33
2018-07-16T23:25:36.659Z,2.63
2018-07-16T23:30:39.928Z,2.70
2018-07-16T23:35:43.196Z,2.70
2018-07-16T23:40:46.540Z,2.70
2018-07-16T23:45:49.872Z,2.57
2018-07-16T23:50:53.194Z,2.60
2018-07-16T23:55:56.505Z,2.57
